Herndon, Kentucky
Current Conditions -  °F | °C
As of 5:58 AM on Friday 28 Nov 2014 (Local Time) from KHOP Reporting Station
Few Clouds Few Clouds  
Wind Chill: -7°   Ceiling: Unl
Heat Index: -3°   Visibility: 10mi
Dew Point: -4°   Wind: 6mph
Humidity: 91%   Direction: 140°SE
Pressure: 30.42"   Gusts: NA
Location:  36.73°N, 87.57°W
Report Text: KHOP 281158Z AUTO 14005KT 10SM FEW180 M03/M04 A3042 RMK AO2 SLP309 T10291042 11020 21033 57006
Loading
Personal Weather Stations






























Interactive Weather Map New forecast layout! Learn more

10-Day Weather Forecast

Advertisements
Track Severe Weather on mobile